Time;durP1;ratioP1;P1;durP2;ratioP2;P2;SDS_P1;SDS_P2;PMS_P1;PMS_P2;Temp;Humidity;BMP_temperature;BMP_pressure;BME280_temperature;BME280_humidity;BME280_pressure;Samples;Min_cycle;Max_cycle;Signal;HPM_P1;HPM_P2
2022/06/03 00:00:06;;;;;;;10.50;7.10;;;18.90;99.90;;;;;;4759667;30;20031;-85
2022/06/03 00:03:36;;;;;;;12.55;6.55;;;18.80;99.90;;;;;;4756692;30;20040;-84
2022/06/03 00:06:07;;;;;;;12.52;5.97;;;19.10;99.90;;;;;;4721033;30;20041;-92
2022/06/03 00:09:13;;;;;;;11.25;6.55;;;19.20;99.90;;;;;;4719795;30;20524;-91
2022/06/03 00:12:04;;;;;;;10.27;6.07;;;19.40;99.90;;;;;;4719960;30;20195;-86
2022/06/03 00:15:01;;;;;;;9.52;5.45;;;19.10;99.90;;;;;;4736888;29;20123;-86
2022/06/03 00:17:48;;;;;;;11.13;5.97;;;18.90;99.90;;;;;;4737206;30;20770;-80
2022/06/03 00:20:44;;;;;;;10.15;6.10;;;19.00;99.90;;;;;;4737072;30;20062;-87
2022/06/03 00:23:31;;;;;;;9.98;5.53;;;19.40;99.90;;;;;;4736013;30;20516;-90
2022/06/03 00:26:29;;;;;;;10.43;5.97;;;19.20;99.90;;;;;;4736910;30;20036;-91
2022/06/03 00:29:19;;;;;;;10.25;6.30;;;19.40;99.90;;;;;;4737008;30;20045;-89
2022/06/03 00:32:03;;;;;;;10.93;5.88;;;22.00;99.90;;;;;;4736830;30;20067;-92
2022/06/03 00:34:47;;;;;;;9.23;5.32;;;19.50;99.90;;;;;;4737257;30;20281;-92
2022/06/03 00:37:41;;;;;;;11.48;5.68;;;19.50;99.90;;;;;;4756336;30;20126;-83
2022/06/03 00:40:27;;;;;;;13.77;6.93;;;19.80;99.20;;;;;;4773974;29;20051;-88
2022/06/03 00:43:09;;;;;;;9.60;5.80;;;19.60;99.80;;;;;;4790548;29;20110;-89
2022/06/03 00:45:55;;;;;;;10.82;5.90;;;19.80;99.50;;;;;;4775006;29;20042;-89
2022/06/03 00:48:45;;;;;;;10.18;5.90;;;19.10;99.90;;;;;;4827870;29;20041;-88
2022/06/03 00:51:13;;;;;;;12.15;5.80;;;19.00;99.90;;;;;;4831381;29;20034;-89
2022/06/03 00:54:02;;;;;;;11.48;7.03;;;18.80;99.90;;;;;;4847115;29;20158;-85
2022/06/03 00:56:55;;;;;;;10.75;6.32;;;18.50;99.90;;;;;;4847435;29;20030;-92
2022/06/03 00:59:21;;;;;;;11.63;6.82;;;20.70;99.90;;;;;;4847421;29;20022;-89
2022/06/03 01:02:26;;;;;;;13.07;6.70;;;18.40;99.90;;;;;;4847172;29;20021;-92
2022/06/03 01:04:55;;;;;;;10.02;5.88;;;18.30;99.90;;;;;;4847863;29;20327;-91
2022/06/03 01:07:41;;;;;;;11.00;6.63;;;18.50;99.90;;;;;;4833199;29;20037;-79
2022/06/03 01:10:25;;;;;;;9.57;5.80;;;18.40;99.90;;;;;;4855554;29;20017;-80
2022/06/03 01:13:20;;;;;;;13.15;6.78;;;18.70;99.90;;;;;;4843729;29;20242;-89
2022/06/03 01:15:51;;;;;;;12.60;6.88;;;18.90;99.90;;;;;;4844064;29;20036;-84
2022/06/03 01:18:17;;;;;;;11.43;5.80;;;19.10;99.90;;;;;;4836833;29;20129;-91
2022/06/03 01:21:06;;;;;;;11.10;6.18;;;19.00;99.90;;;;;;4852273;29;20082;-83
2022/06/03 01:23:48;;;;;;;11.02;6.22;;;19.00;99.90;;;;;;4778569;30;20585;-88
2022/06/03 01:26:28;;;;;;;11.35;6.15;;;19.60;99.90;;;;;;4779164;29;20051;-91
2022/06/03 01:29:03;;;;;;;10.70;6.20;;;19.50;99.90;;;;;;4780069;30;20043;-91
2022/06/03 01:32:13;;;;;;;13.18;6.45;;;19.80;99.30;;;;;;4775962;30;20063;-81
2022/06/03 01:35:07;;;;;;;9.52;5.38;;;20.10;98.90;;;;;;4760672;30;20035;-91
2022/06/03 01:37:36;;;;;;;10.07;5.95;;;20.40;98.10;;;;;;4775341;30;20035;-86
2022/06/03 01:40:22;;;;;;;9.20;6.13;;;20.40;98.00;;;;;;4774719;29;20766;-80
2022/06/03 01:43:12;;;;;;;9.13;5.43;;;20.40;98.90;;;;;;4794145;29;20570;-86
2022/06/03 01:45:54;;;;;;;11.15;5.32;;;20.60;97.70;;;;;;4793641;29;20088;-86
2022/06/03 01:48:56;;;;;;;9.40;5.68;;;20.70;97.20;;;;;;4793203;29;20043;-90
2022/06/03 01:52:00;;;;;;;10.77;5.90;;;20.80;97.00;;;;;;4756903;30;20046;-86
2022/06/03 01:54:37;;;;;;;9.57;5.85;;;20.70;97.10;;;;;;4707916;30;20114;-87
2022/06/03 01:57:27;;;;;;;12.40;6.00;;;20.70;97.40;;;;;;4711764;30;20029;-91
2022/06/03 02:00:05;;;;;;;10.23;5.45;;;20.50;97.60;;;;;;4713140;30;20307;-90
2022/06/03 02:02:42;;;;;;;11.98;6.15;;;20.50;97.60;;;;;;4726787;30;20126;-85
2022/06/03 02:05:40;;;;;;;10.90;7.25;;;20.70;97.30;;;;;;4725898;30;20079;-87
2022/06/03 02:08:53;;;;;;;10.15;5.72;;;20.40;97.50;;;;;;4724335;30;20048;-90
2022/06/03 02:11:43;;;;;;;8.25;5.40;;;20.60;97.40;;;;;;4725631;30;20041;-83
2022/06/03 02:14:23;;;;;;;11.10;5.80;;;23.70;98.00;;;;;;4726985;30;20033;-89
2022/06/03 02:17:18;;;;;;;10.60;5.22;;;20.80;97.00;;;;;;4726456;29;20599;-86
2022/06/03 02:19:53;;;;;;;10.45;5.13;;;20.90;96.70;;;;;;4722276;30;20025;-89
2022/06/03 02:22:57;;;;;;;9.43;5.47;;;21.00;96.60;;;;;;4722303;30;20037;-88
2022/06/03 02:25:38;;;;;;;10.27;6.00;;;21.10;96.40;;;;;;4722317;30;20686;-90
2022/06/03 02:28:10;;;;;;;10.45;6.15;;;21.20;96.10;;;;;;4739398;30;20803;-91
2022/06/03 02:31:01;;;;;;;10.48;5.53;;;21.20;96.10;;;;;;4797032;29;20034;-91
2022/06/03 02:33:26;;;;;;;13.43;6.63;;;21.20;96.10;;;;;;4798025;29;20113;-89
2022/06/03 02:35:58;;;;;;;10.07;5.93;;;20.80;96.60;;;;;;4797759;29;20121;-89
2022/06/03 02:38:43;;;;;;;9.93;5.75;;;20.70;97.10;;;;;;4810313;29;20042;-92
2022/06/03 02:41:23;;;;;;;9.63;5.18;;;20.80;96.70;;;;;;4810320;29;20087;-87
2022/06/03 02:44:16;;;;;;;9.25;5.07;;;20.90;96.60;;;;;;4810349;29;20052;-87
2022/06/03 02:47:12;;;;;;;8.50;5.20;;;21.00;96.40;;;;;;4794376;29;20050;-82
2022/06/03 02:50:15;;;;;;;9.82;5.88;;;21.00;96.20;;;;;;4800918;29;20031;-78
2022/06/03 02:53:17;;;;;;;10.88;6.28;;;20.40;97.20;;;;;;4807134;29;20034;-79
2022/06/03 02:56:01;;;;;;;10.93;6.18;;;20.60;96.90;;;;;;4808758;29;20030;-88
2022/06/03 02:59:03;;;;;;;10.13;6.38;;;20.10;97.60;;;;;;4825405;29;20027;-83
2022/06/03 03:02:07;;;;;;;12.23;5.93;;;20.50;97.60;;;;;;4827441;29;20038;-79
2022/06/03 03:04:49;;;;;;;9.50;5.63;;;20.70;96.90;;;;;;4799604;29;20564;-83
2022/06/03 03:07:40;;;;;;;10.90;5.78;;;20.80;96.60;;;;;;4798492;29;20133;-82
2022/06/03 03:10:40;;;;;;;10.90;5.93;;;20.90;96.40;;;;;;4792625;29;20035;-80
2022/06/03 03:13:14;;;;;;;10.15;4.85;;;20.90;96.40;;;;;;4776779;29;20076;-80
2022/06/03 03:15:52;;;;;;;9.35;5.65;;;21.10;96.10;;;;;;4790970;29;20043;-80
2022/06/03 03:18:43;;;;;;;11.30;5.53;;;21.10;96.00;;;;;;4791118;29;20685;-88
2022/06/03 03:21:42;;;;;;;12.52;5.57;;;21.10;95.90;;;;;;4791233;29;20032;-91
2022/06/03 03:24:11;;;;;;;9.07;5.45;;;21.10;95.80;;;;;;4790808;29;20085;-86
2022/06/03 03:26:56;;;;;;;9.90;5.82;;;21.10;95.90;;;;;;4789962;29;20690;-80
2022/06/03 03:29:39;;;;;;;9.45;5.85;;;21.10;95.90;;;;;;4774651;29;20043;-85
2022/06/03 03:32:26;;;;;;;10.20;5.60;;;21.10;95.70;;;;;;4790723;29;20662;-88
2022/06/03 03:35:04;;;;;;;9.73;5.70;;;21.10;95.70;;;;;;4793942;29;20037;-88
2022/06/03 03:38:02;;;;;;;11.70;6.25;;;21.00;95.90;;;;;;4847350;29;20024;-80
2022/06/03 03:40:58;;;;;;;10.25;5.47;;;21.00;95.90;;;;;;4847386;29;20085;-84
2022/06/03 03:44:02;;;;;;;11.15;5.70;;;21.00;95.90;;;;;;4847041;29;20022;-79
2022/06/03 03:47:01;;;;;;;9.80;5.97;;;21.00;96.00;;;;;;4830300;29;20021;-77
2022/06/03 03:49:45;;;;;;;9.27;5.70;;;18.20;95.30;;;;;;4847915;29;20029;-84
2022/06/03 03:52:32;;;;;;;9.05;5.60;;;21.00;95.90;;;;;;4832373;29;20033;-91
2022/06/03 03:55:22;;;;;;;16.00;8.50;;;21.00;95.90;;;;;;4847901;29;20025;-87
2022/06/03 03:58:16;;;;;;;15.18;7.55;;;20.90;96.00;;;;;;4831206;29;20029;-90
2022/06/03 04:00:42;;;;;;;14.30;7.07;;;20.90;96.20;;;;;;4847682;29;20117;-86
2022/06/03 04:03:26;;;;;;;12.23;7.30;;;20.80;96.20;;;;;;4832166;29;20070;-88
2022/06/03 04:06:16;;;;;;;12.27;7.57;;;19.60;95.70;;;;;;4848728;29;20030;-83
2022/06/03 04:09:17;;;;;;;12.63;6.97;;;21.00;96.00;;;;;;4847335;29;20137;-88
2022/06/03 04:12:18;;;;;;;11.25;6.63;;;21.00;95.90;;;;;;4772694;29;20055;-89
2022/06/03 04:15:22;;;;;;;9.23;6.00;;;21.00;96.10;;;;;;4856860;23;20056;-91
2022/06/03 04:18:22;;;;;;;12.05;6.35;;;21.00;95.90;;;;;;4826658;29;20034;-87
2022/06/03 04:20:48;;;;;;;11.80;6.57;;;;;;;;;;4811972;29;20106;-85
2022/06/03 04:23:58;;;;;;;11.82;6.55;;;21.00;95.60;;;;;;4811393;29;20066;-91
2022/06/03 04:26:32;;;;;;;14.18;8.13;;;21.00;95.80;;;;;;4757157;30;20092;-79
2022/06/03 04:29:34;;;;;;;13.70;7.55;;;21.10;95.70;;;;;;4757603;30;20039;-91
2022/06/03 04:32:18;;;;;;;16.80;8.50;;;21.20;95.60;;;;;;4772046;29;20700;-81
2022/06/03 04:35:36;;;;;;;18.42;10.05;;;21.30;95.60;;;;;;4756776;30;20035;-79
2022/06/03 04:40:46;;;;;;;12.50;7.25;;;21.20;95.50;;;;;;4870511;23;20965;-83
2022/06/03 04:43:41;;;;;;;11.82;7.45;;;21.10;95.70;;;;;;4849423;29;20056;-80
2022/06/03 04:46:39;;;;;;;13.38;7.78;;;21.20;95.60;;;;;;4790127;29;20046;-84
2022/06/03 04:49:23;;;;;;;12.27;7.57;;;21.20;95.90;;;;;;4808137;29;20038;-90
2022/06/03 04:52:43;;;;;;;13.77;7.40;;;21.20;96.20;;;;;;4793521;29;20034;-80
2022/06/03 04:55:50;;;;;;;13.60;8.25;;;22.30;96.10;;;;;;4754045;30;20550;-91
2022/06/03 04:58:39;;;;;;;14.93;8.13;;;21.30;95.60;;;;;;4718840;30;20045;-92
2022/06/03 05:01:26;;;;;;;13.77;8.52;;;21.40;95.40;;;;;;4701828;30;20037;-92
2022/06/03 05:04:04;;;;;;;16.20;8.70;;;21.20;96.20;;;;;;4702612;30;20037;-92
2022/06/03 05:06:48;;;;;;;12.98;7.88;;;21.00;96.20;;;;;;4701840;30;20109;-86
2022/06/03 05:09:47;;;;;;;12.52;7.75;;;21.20;95.60;;;;;;4687375;30;20049;-93
2022/06/03 05:16:23;;;;;;;12.57;8.35;;;21.40;95.70;;;;;;4891210;23;20136;-86
2022/06/03 05:19:12;;;;;;;14.00;7.25;;;22.10;96.60;;;;;;4885678;29;20580;-91
2022/06/03 05:22:19;;;;;;;14.10;8.35;;;21.20;96.60;;;;;;4868434;29;20028;-88
2022/06/03 05:25:25;;;;;;;14.13;7.90;;;21.20;96.20;;;;;;4885206;29;20081;-80
2022/06/03 05:28:34;;;;;;;18.40;8.05;;;21.20;96.00;;;;;;4884945;29;20064;-91
2022/06/03 05:31:21;;;;;;;11.05;7.22;;;21.30;96.10;;;;;;4885604;29;20021;-82
2022/06/03 05:39:49;;;;;;;11.65;7.32;;;21.40;96.70;;;;;;4894075;23;20139;-93
2022/06/03 05:46:24;;;;;;;10.27;6.68;;;21.90;95.30;;;;;;4886059;29;20338;-94
2022/06/03 05:49:11;;;;;;;13.35;9.00;;;22.00;95.40;;;;;;4864761;29;20101;-92
2022/06/03 05:52:22;;;;;;;11.35;7.15;;;21.70;96.90;;;;;;4849237;29;20516;-83
2022/06/03 05:55:09;;;;;;;12.52;7.07;;;21.80;95.30;;;;;;4762564;30;20633;-90
2022/06/03 05:58:19;;;;;;;12.98;7.32;;;22.00;96.20;;;;;;4700437;30;20048;-88
2022/06/03 06:01:29;;;;;;;11.75;7.10;;;21.80;95.90;;;;;;4720990;30;20033;-81
2022/06/03 06:04:34;;;;;;;12.23;7.78;;;21.90;96.20;;;;;;4723804;30;20041;-92
2022/06/03 06:07:45;;;;;;;13.02;7.45;;;22.00;95.70;;;;;;4722572;30;20049;-81
2022/06/03 06:11:03;;;;;;;13.52;8.27;;;21.90;95.40;;;;;;4721880;30;20056;-91
2022/06/03 06:14:05;;;;;;;13.98;7.85;;;21.80;96.10;;;;;;4676376;30;20034;-92
2022/06/03 06:17:03;;;;;;;12.23;6.72;;;21.10;96.70;;;;;;4664706;30;20085;-85
2022/06/03 06:20:16;;;;;;;11.73;6.75;;;22.00;96.40;;;;;;4682953;30;20060;-81
2022/06/03 06:23:18;;;;;;;13.35;8.73;;;22.60;96.00;;;;;;4652406;30;20121;-90
2022/06/03 06:26:24;;;;;;;13.23;7.70;;;22.30;95.30;;;;;;4657368;30;20043;-89
2022/06/03 06:28:58;;;;;;;12.05;6.47;;;22.60;96.20;;;;;;4606090;31;20051;-90
2022/06/03 06:31:48;;;;;;;11.88;6.97;;;22.50;94.60;;;;;;4635360;30;20046;-87
2022/06/03 06:34:39;;;;;;;13.48;8.50;;;23.40;94.80;;;;;;4686080;30;20043;-87
2022/06/03 06:37:40;;;;;;;14.00;8.55;;;22.70;94.60;;;;;;4722584;30;20210;-93
2022/06/03 06:40:25;;;;;;;13.27;8.25;;;23.60;94.00;;;;;;4786938;23;20056;-94
2022/06/03 06:43:01;;;;;;;18.00;9.32;;;22.80;95.30;;;;;;4869855;29;20096;-84
2022/06/03 06:46:16;;;;;;;15.32;9.18;;;22.90;95.20;;;;;;4884593;23;20124;-91
2022/06/03 06:52:09;;;;;;;15.00;8.70;;;23.10;95.10;;;;;;4885400;23;20084;-93
2022/06/03 06:54:35;;;;;;;16.30;9.60;;;;;;;;;;4869307;29;20040;-90
2022/06/03 06:57:32;;;;;;;14.13;9.50;;;23.10;94.80;;;;;;4870453;29;20709;-90
2022/06/03 07:00:16;;;;;;;14.80;9.18;;;21.80;94.60;;;;;;4925038;23;20060;-88
2022/06/03 07:03:24;;;;;;;11.25;6.90;;;23.20;95.30;;;;;;4888723;29;20020;-94
2022/06/03 07:06:14;;;;;;;14.13;8.80;;;24.30;94.30;;;;;;4857995;29;20752;-83
2022/06/03 07:09:03;;;;;;;16.30;8.55;;;23.60;94.90;;;;;;4886746;29;20200;-90
2022/06/03 07:11:51;;;;;;;15.13;8.93;;;23.50;94.90;;;;;;4887939;29;20025;-89
2022/06/03 07:14:53;;;;;;;13.07;8.23;;;23.50;94.40;;;;;;4887164;29;20068;-88
2022/06/03 07:21:43;;;;;;;13.30;9.10;;;24.30;94.20;;;;;;4867686;29;20090;-88
2022/06/03 07:24:52;;;;;;;15.75;9.15;;;23.60;93.50;;;;;;4851432;29;20025;-86
2022/06/03 07:27:56;;;;;;;15.18;8.98;;;26.50;94.20;;;;;;4852513;29;20062;-90
2022/06/03 07:30:59;;;;;;;13.18;8.63;;;24.60;93.50;;;;;;4852952;29;20033;-86
2022/06/03 07:37:42;;;;;;;14.65;9.48;;;24.40;93.20;;;;;;4868311;29;20032;-89
2022/06/03 09:02:44;;;;;;;16.65;8.90;;;27.50;84.00;;;;;;5058414;23;20323;-78
2022/06/03 09:05:32;;;;;;;12.35;8.10;;;31.20;87.80;;;;;;4894495;29;20119;-93
2022/06/03 09:08:36;;;;;;;13.27;8.63;;;27.80;84.00;;;;;;4896062;29;20115;-92
2022/06/03 09:11:46;;;;;;;16.33;9.73;;;28.00;83.50;;;;;;4940106;23;20552;-93
2022/06/03 09:14:40;;;;;;;13.27;9.45;;;27.90;83.40;;;;;;4901851;23;20232;-92
2022/06/03 09:19:46;;;;;;;14.55;9.85;;;27.80;83.30;;;;;;4876702;23;20081;-84
2022/06/03 09:22:21;;;;;;;18.08;9.20;;;28.00;83.70;;;;;;4868955;29;20109;-84
2022/06/03 09:24:47;;;;;;;13.27;8.82;;;28.10;83.40;;;;;;4851157;29;20031;-91
2022/06/03 09:27:16;;;;;;;13.85;8.43;;;28.30;83.30;;;;;;4868746;29;20343;-81
2022/06/03 09:29:50;;;;;;;16.65;9.20;;;28.40;81.70;;;;;;4854637;29;20063;-92
2022/06/03 10:01:23;;;;;;;12.55;9.30;;;29.40;77.90;;;;;;5253629;24;20051;-87
2022/06/03 10:04:22;;;;;;;14.45;8.57;;;29.40;79.00;;;;;;4798082;29;20126;-87
2022/06/03 10:06:48;;;;;;;12.43;8.77;;;29.30;79.00;;;;;;4814248;29;20019;-80
2022/06/03 10:18:11;;;;;;;11.27;7.72;;;29.80;77.20;;;;;;4813540;29;20082;-84
2022/06/03 10:20:37;;;;;;;11.50;7.60;;;30.00;75.20;;;;;;4799046;29;20162;-86
2022/06/03 10:23:24;;;;;;;15.02;8.98;;;30.30;75.80;;;;;;4813486;29;20400;-92
2022/06/03 10:26:05;;;;;;;13.38;8.43;;;31.20;74.60;;;;;;4797846;29;20733;-92
2022/06/03 10:28:41;;;;;;;12.90;8.07;;;31.50;75.20;;;;;;4812707;29;20030;-91
2022/06/03 10:31:13;;;;;;;13.57;8.95;;;30.80;73.20;;;;;;4813462;29;20027;-80
2022/06/03 10:33:39;;;;;;;14.52;8.25;;;30.80;71.80;;;;;;4813860;29;20095;-84
2022/06/03 10:36:06;;;;;;;13.43;7.57;;;31.00;70.40;;;;;;4813931;29;20062;-86
2022/06/03 10:38:36;;;;;;;12.13;7.65;;;31.10;69.80;;;;;;4813444;29;20028;-93
2022/06/03 10:41:38;;;;;;;14.05;7.82;;;31.10;69.10;;;;;;4797270;29;20053;-83
2022/06/03 10:44:16;;;;;;;13.13;7.82;;;31.20;70.10;;;;;;4798066;29;20041;-90
2022/06/03 10:46:55;;;;;;;13.00;7.70;;;31.10;69.10;;;;;;4813833;29;20034;-92
2022/06/03 10:49:24;;;;;;;12.57;7.68;;;31.10;70.70;;;;;;4800818;29;20053;-84
2022/06/03 11:03:41;;;;;;;12.68;8.13;;;32.50;68.10;;;;;;4814793;29;20061;-84
2022/06/03 11:06:17;;;;;;;12.65;7.65;;;31.60;67.50;;;;;;4814521;29;20022;-92
2022/06/03 11:09:00;;;;;;;11.63;7.30;;;32.10;65.80;;;;;;4799745;29;20055;-91
2022/06/03 11:11:34;;;;;;;12.07;6.95;;;32.10;64.40;;;;;;4816655;29;20038;-85
2022/06/03 11:14:27;;;;;;;10.57;7.30;;;32.00;62.80;;;;;;4813048;29;20054;-90
2022/06/03 11:16:53;;;;;;;;;;;32.20;63.40;;;;;;4814331;29;20118;-87
2022/06/03 11:19:20;;;;;;;11.50;7.38;;;32.50;62.50;;;;;;4814961;29;20560;-94
2022/06/03 11:21:47;;;;;;;12.57;6.80;;;32.50;63.00;;;;;;4798459;29;20030;-93
2022/06/03 11:24:16;;;;;;;11.02;6.82;;;32.50;61.70;;;;;;4854333;24;20051;-92
2022/06/03 11:26:45;;;;;;;10.80;5.93;;;32.60;61.90;;;;;;4779657;29;20037;-86
2022/06/03 11:30:11;;;;;;;9.82;7.43;;;32.70;61.30;;;;;;5212382;24;20038;-91
2022/06/03 11:33:33;;;;;;;13.80;6.88;;;33.70;61.20;;;;;;4778923;29;20062;-90
2022/06/03 11:48:37;;;;;;;8.48;5.00;;;34.60;53.70;;;;;;4818377;29;20175;-90
2022/06/03 11:51:05;;;;;;;9.98;5.00;;;34.40;52.80;;;;;;4797870;29;20028;-92
2022/06/03 11:53:49;;;;;;;7.80;4.60;;;34.50;53.10;;;;;;4798386;29;20166;-93
2022/06/03 11:56:56;;;;;;;7.60;4.63;;;34.80;52.30;;;;;;4778757;30;20046;-91
2022/06/03 12:00:22;;;;;;;8.45;4.72;;;35.00;51.70;;;;;;4711535;30;20036;-83
2022/06/03 12:03:23;;;;;;;7.43;4.18;;;36.90;50.40;;;;;;4726847;30;20064;-89
2022/06/03 12:06:19;;;;;;;6.22;3.78;;;35.70;47.80;;;;;;4780755;24;20146;-94
2022/06/03 12:08:55;;;;;;;7.85;4.00;;;37.80;43.80;;;;;;4793186;30;20115;-94
2022/06/03 12:14:40;;;;;;;6.80;3.22;;;38.50;44.30;;;;;;4839222;24;20087;-93
2022/06/03 12:17:09;;;;;;;7.38;3.90;;;38.40;42.50;;;;;;4839776;24;20217;-87
2022/06/03 12:20:10;;;;;;;7.85;4.20;;;38.30;42.90;;;;;;4841703;24;20040;-83
2022/06/03 12:22:48;;;;;;;7.72;3.92;;;38.70;43.80;;;;;;4834707;29;20038;-84
2022/06/03 12:26:00;;;;;;;6.88;4.45;;;37.90;42.70;;;;;;4831599;29;20031;-89
2022/06/03 12:35:09;;;;;;;7.57;4.97;;;39.30;40.80;;;;;;507376;27;20329;-83
2022/06/03 12:42:02;;;;;;;7.50;3.92;;;39.50;42.00;;;;;;4818453;24;20141;-88
2022/06/03 12:45:06;;;;;;;8.02;3.70;;;41.60;41.60;;;;;;4815041;29;20034;-84
2022/06/03 12:47:38;;;;;;;6.35;3.08;;;39.00;39.50;;;;;;4798363;29;20401;-88
2022/06/03 12:59:32;;;;;;;7.05;4.13;;;37.00;41.30;;;;;;4848914;24;20509;-84
2022/06/03 13:02:49;;;;;;;6.72;3.10;;;33.80;38.40;;;;;;4794292;29;20678;-91
2022/06/03 14:04:27;;;;;;;5.97;3.20;;;35.40;40.80;;;;;;4967276;24;20054;-88
2022/06/03 14:24:54;;;;;;;;;;;;;;;;;;;;;
2022/06/03 14:44:41;;;;;;;10.82;4.50;;;39.10;41.00;;;;;;4814315;29;20353;-89
2022/06/03 15:16:21;;;;;;;8.25;5.13;;;37.60;44.10;;;;;;4773809;30;20040;-90
2022/06/03 15:26:19;;;;;;;9.98;5.80;;;40.30;43.60;;;;;;4764598;30;20143;-90
2022/06/03 15:28:52;;;;;;;10.32;5.88;;;40.70;42.80;;;;;;4765713;30;20040;-89
2022/06/03 15:34:30;;;;;;;8.25;4.93;;;39.90;42.20;;;;;;4759796;30;20039;-89
2022/06/03 15:36:59;;;;;;;7.65;5.07;;;39.90;41.90;;;;;;4759307;30;20028;-91
2022/06/03 15:39:34;;;;;;;8.10;5.15;;;39.70;42.10;;;;;;4759001;30;20032;-91
2022/06/03 15:42:08;;;;;;;11.18;5.28;;;39.40;41.80;;;;;;4759523;30;20764;-91
2022/06/03 15:44:40;;;;;;;9.48;5.00;;;39.40;42.30;;;;;;4759904;30;20032;-80
2022/06/03 15:47:12;;;;;;;9.40;5.25;;;39.50;42.10;;;;;;4761133;30;20032;-88
2022/06/03 15:49:40;;;;;;;9.55;5.07;;;39.40;41.90;;;;;;4760020;30;20036;-89
2022/06/03 15:52:17;;;;;;;7.30;4.72;;;39.20;42.00;;;;;;4773323;30;20035;-89
2022/06/03 16:31:45;;;;;;;11.30;5.28;;;39.70;42.50;;;;;;4795610;29;20026;-88
2022/06/03 17:28:21;;;;;;;14.35;7.05;;;31.40;56.10;;;;;;5909998;24;20031;31
2022/06/03 17:35:30;;;;;;;9.70;5.53;;;32.70;58.90;;;;;;4777985;30;20081;-90
2022/06/03 17:55:59;;;;;;;12.95;6.13;;;28.20;63.90;;;;;;4815917;29;20045;-91
2022/06/03 18:53:27;;;;;;;17.58;7.97;;;25.00;87.20;;;;;;5659124;24;20047;-92
2022/06/03 18:59:40;;;;;;;13.93;8.80;;;26.10;90.20;;;;;;4837612;24;20054;-95
2022/06/03 19:02:31;;;;;;;15.53;7.87;;;25.40;90.30;;;;;;4794483;29;20011;-84
2022/06/03 19:08:17;;;;;;;13.30;7.15;;;24.50;90.90;;;;;;3128747;27;20090;-80
2022/06/03 19:16:57;;;;;;;20.17;8.27;;;24.20;92.20;;;;;;4923181;24;20062;-87
2022/06/03 19:19:58;;;;;;;23.15;9.07;;;25.20;93.00;;;;;;4754839;30;20058;-83
2022/06/03 19:23:01;;;;;;;15.30;6.40;;;23.90;92.80;;;;;;4753862;30;20080;-93
2022/06/03 19:25:46;;;;;;;11.90;5.90;;;24.10;93.10;;;;;;4764332;30;20028;-81
2022/06/03 19:31:15;;;;;;;12.32;6.43;;;23.80;92.90;;;;;;4954032;24;20054;-93
2022/06/03 19:34:22;;;;;;;19.50;6.78;;;24.70;93.20;;;;;;4825021;29;20030;-96
2022/06/03 19:36:48;;;;;;;11.85;6.05;;;;;;;;;;4818637;24;20055;-93
2022/06/03 19:45:22;;;;;;;12.75;7.35;;;23.50;93.90;;;;;;4811277;29;20062;-96
2022/06/03 19:51:32;;;;;;;11.48;7.57;;;23.40;93.80;;;;;;5177037;24;20057;-93
2022/06/03 20:02:52;;;;;;;10.60;5.97;;;23.30;94.20;;;;;;4854921;24;20139;-82
2022/06/03 20:06:09;;;;;;;11.77;6.45;;;22.00;94.10;;;;;;4753486;30;20072;-92
2022/06/03 20:09:11;;;;;;;11.73;5.95;;;23.10;94.30;;;;;;4729664;30;20369;-81
2022/06/03 20:15:19;;;;;;;12.07;6.82;;;22.60;94.20;;;;;;4751771;30;20054;-96
2022/06/03 20:18:11;;;;;;;13.30;6.43;;;20.00;93.80;;;;;;4737594;30;20099;-91
2022/06/03 20:21:13;;;;;;;10.80;6.22;;;23.00;94.70;;;;;;4701887;30;20127;-86
2022/06/03 20:24:16;;;;;;;12.07;6.22;;;23.00;95.20;;;;;;4702454;30;20066;-87
2022/06/03 20:26:57;;;;;;;10.48;6.57;;;23.50;95.20;;;;;;4708814;30;20048;-85
2022/06/03 20:29:37;;;;;;;11.40;7.10;;;22.90;95.10;;;;;;4700227;30;20144;-92
2022/06/03 20:32:41;;;;;;;13.52;7.10;;;22.80;95.50;;;;;;4710619;30;20098;-80
2022/06/03 20:35:39;;;;;;;12.48;5.95;;;22.70;95.70;;;;;;4713082;30;20064;-81
2022/06/03 20:38:47;;;;;;;10.50;5.68;;;22.70;95.70;;;;;;4749869;30;20024;-82
2022/06/03 20:41:43;;;;;;;11.80;5.55;;;22.60;95.60;;;;;;4735951;30;20041;-81
2022/06/03 20:44:44;;;;;;;9.18;5.88;;;22.70;95.60;;;;;;4733892;30;20045;-82
2022/06/03 20:47:41;;;;;;;14.25;6.95;;;22.70;95.70;;;;;;4712619;30;20037;-82
2022/06/03 20:50:31;;;;;;;13.85;5.88;;;22.70;95.70;;;;;;4708160;30;20045;-80
2022/06/03 20:53:03;;;;;;;12.77;7.03;;;22.80;95.30;;;;;;4706750;30;20091;-92
2022/06/03 20:55:31;;;;;;;10.40;6.03;;;22.80;95.40;;;;;;4695038;30;20119;-87
2022/06/03 20:58:20;;;;;;;9.95;6.20;;;22.70;95.20;;;;;;4695622;30;20046;-95
2022/06/03 21:01:24;;;;;;;10.55;6.30;;;22.60;95.40;;;;;;4885029;24;20051;-90
2022/06/03 21:14:01;;;;;;;13.85;6.05;;;22.20;96.70;;;;;;4822754;29;20042;-94
2022/06/03 21:16:43;;;;;;;10.55;5.68;;;22.20;96.70;;;;;;4832291;29;20043;-91
2022/06/03 21:19:09;;;;;;;12.40;6.75;;;22.20;96.70;;;;;;4828922;29;20144;-96
2022/06/03 21:21:55;;;;;;;11.02;6.45;;;21.70;96.90;;;;;;4828880;29;20035;-95
2022/06/03 21:24:54;;;;;;;10.95;5.70;;;22.10;96.90;;;;;;4825429;29;20022;-89
2022/06/03 21:27:21;;;;;;;11.05;6.55;;;21.00;96.80;;;;;;4806611;29;20053;-96
2022/06/03 21:29:47;;;;;;;11.68;6.20;;;22.40;97.00;;;;;;4804323;29;20537;-94
2022/06/03 21:32:40;;;;;;;11.98;6.63;;;22.10;96.70;;;;;;4826445;29;20031;-81
2022/06/03 21:35:34;;;;;;;13.70;6.22;;;21.20;96.10;;;;;;4826060;29;20387;-86
2022/06/03 21:38:23;;;;;;;11.35;6.55;;;22.20;96.10;;;;;;4810004;29;20069;-91
2022/06/03 21:41:07;;;;;;;10.98;6.05;;;22.20;95.90;;;;;;4806298;29;20031;-83
2022/06/03 21:44:04;;;;;;;11.50;6.22;;;22.30;95.80;;;;;;4823651;29;20038;-89
2022/06/03 21:47:01;;;;;;;9.57;5.65;;;22.30;95.70;;;;;;4829529;29;20091;-96
2022/06/03 21:50:11;;;;;;;9.98;5.70;;;22.40;95.80;;;;;;4839396;29;20042;-95
2022/06/03 21:53:35;;;;;;;10.63;5.32;;;22.60;95.60;;;;;;4833580;29;20039;-95
2022/06/03 21:56:28;;;;;;;10.18;6.20;;;22.70;95.10;;;;;;4751171;30;20086;-85
2022/06/03 21:59:07;;;;;;;10.07;5.65;;;22.90;94.80;;;;;;4710258;30;20036;-89
2022/06/03 22:01:40;;;;;;;10.65;5.80;;;23.90;94.60;;;;;;4766619;30;20079;-94
2022/06/03 22:04:07;;;;;;;9.20;5.47;;;23.20;94.30;;;;;;4760004;30;20052;-92
2022/06/03 22:06:38;;;;;;;11.55;5.82;;;23.00;94.20;;;;;;4737715;30;20040;-86
2022/06/03 22:09:05;;;;;;;10.85;5.88;;;23.00;94.40;;;;;;4758266;30;20032;-96
2022/06/03 22:14:21;;;;;;;10.32;6.18;;;22.70;95.00;;;;;;4758412;30;20074;-96
2022/06/03 22:16:50;;;;;;;11.57;6.53;;;22.50;94.70;;;;;;4869661;24;20066;-87
2022/06/03 22:19:31;;;;;;;12.93;6.25;;;;;;;;;;4844836;29;20029;-81
2022/06/03 22:22:08;;;;;;;11.45;6.22;;;22.50;94.80;;;;;;4824352;29;20043;-96
2022/06/03 22:24:37;;;;;;;12.25;6.60;;;22.70;95.50;;;;;;4815185;29;20117;-93
2022/06/03 22:28:03;;;;;;;11.48;6.10;;;22.40;95.30;;;;;;4831113;29;20383;-96
2022/06/03 22:30:29;;;;;;;10.95;6.68;;;22.40;95.50;;;;;;4782880;29;20129;-84
2022/06/03 22:33:19;;;;;;;10.82;5.82;;;22.30;95.60;;;;;;4815081;29;20067;-93
2022/06/03 22:35:54;;;;;;;9.95;6.30;;;22.30;95.60;;;;;;4818446;29;20037;-96
2022/06/03 22:38:59;;;;;;;11.50;6.32;;;22.30;95.70;;;;;;4831091;29;20151;-94
2022/06/03 22:41:44;;;;;;;9.65;5.57;;;22.20;95.90;;;;;;4830614;29;20029;-87
2022/06/03 22:44:23;;;;;;;9.85;5.93;;;22.50;96.40;;;;;;4828888;29;20034;-96
2022/06/03 22:46:55;;;;;;;8.73;5.50;;;24.40;96.60;;;;;;4812051;29;20067;-96
2022/06/03 22:49:32;;;;;;;13.50;6.68;;;22.20;96.00;;;;;;4824384;29;20043;-96
2022/06/03 22:52:04;;;;;;;12.85;6.10;;;22.30;95.50;;;;;;4828811;24;20306;-80
2022/06/03 22:54:39;;;;;;;11.68;6.00;;;22.30;95.80;;;;;;4814010;29;20042;-95
2022/06/03 22:57:30;;;;;;;10.00;5.82;;;22.40;95.80;;;;;;4838221;29;20026;-81
2022/06/03 22:59:57;;;;;;;10.90;5.82;;;22.50;95.30;;;;;;4826725;29;20035;-88
2022/06/03 23:02:31;;;;;;;13.77;6.20;;;22.40;95.70;;;;;;4859719;24;20073;-83
2022/06/03 23:05:07;;;;;;;13.35;6.07;;;22.30;95.70;;;;;;4821890;24;20047;-96
2022/06/03 23:07:56;;;;;;;11.50;6.15;;;22.40;95.80;;;;;;4806557;29;20030;-94
2022/06/03 23:10:29;;;;;;;9.25;5.60;;;21.50;95.60;;;;;;4773774;30;20044;-95
2022/06/03 23:12:55;;;;;;;11.82;6.00;;;22.50;95.70;;;;;;4795353;30;20145;-95
2022/06/03 23:15:21;;;;;;;11.82;6.10;;;22.70;95.20;;;;;;4790170;30;20068;-82
2022/06/03 23:17:56;;;;;;;12.43;6.40;;;22.70;95.30;;;;;;4797934;30;20915;-94
2022/06/03 23:20:48;;;;;;;9.52;5.65;;;22.70;95.20;;;;;;4803874;29;20046;-96
2022/06/03 23:23:53;;;;;;;11.25;5.55;;;21.40;94.90;;;;;;4785140;30;20079;-95
2022/06/03 23:26:28;;;;;;;11.80;7.15;;;22.60;95.10;;;;;;4788257;29;20103;-95
2022/06/03 23:29:02;;;;;;;11.25;6.28;;;21.90;95.50;;;;;;4792916;30;20047;-93